createdAt,value
2018-08-07T00:00:41.714Z,17.41
2018-08-07T00:03:45.952Z,17.43
2018-08-07T00:06:50.210Z,17.45
2018-08-07T00:09:54.509Z,17.39
2018-08-07T00:12:58.944Z,17.31
2018-08-07T00:16:03.309Z,17.24
2018-08-07T00:19:07.573Z,17.19
2018-08-07T00:22:11.941Z,17.11
2018-08-07T00:25:16.232Z,17.09
2018-08-07T00:28:20.560Z,17.05
2018-08-07T00:31:24.871Z,17.01
2018-08-07T00:34:29.245Z,17.03
2018-08-07T00:37:33.600Z,17.06
2018-08-07T00:40:37.916Z,17.09
2018-08-07T00:43:42.247Z,17.05
2018-08-07T00:46:46.602Z,17.01
2018-08-07T00:49:51.000Z,16.99
2018-08-07T00:52:55.304Z,16.95
2018-08-07T00:55:59.567Z,16.92
2018-08-07T00:59:04.042Z,16.91
2018-08-07T01:02:08.349Z,16.91
2018-08-07T01:05:14.769Z,16.90
2018-08-07T01:08:19.059Z,16.86
2018-08-07T01:11:23.368Z,16.82
2018-08-07T01:14:27.691Z,16.79
2018-08-07T01:17:31.989Z,16.77
2018-08-07T01:20:36.321Z,16.76
2018-08-07T01:23:40.662Z,16.75
2018-08-07T01:26:44.977Z,16.72
2018-08-07T01:29:49.005Z,16.72
2018-08-07T01:32:53.918Z,16.73
2018-08-07T01:35:58.228Z,16.76
2018-08-07T01:39:02.560Z,16.77
2018-08-07T01:42:06.898Z,16.78
2018-08-07T01:45:11.632Z,16.81
2018-08-07T01:48:15.924Z,16.82
2018-08-07T01:51:20.228Z,16.86
2018-08-07T01:54:24.593Z,16.89
2018-08-07T01:57:28.886Z,16.90
2018-08-07T02:00:33.116Z,16.93
2018-08-07T02:03:37.400Z,16.98
2018-08-07T02:06:41.731Z,17.03
2018-08-07T02:09:46.039Z,17.08
2018-08-07T02:12:50.343Z,17.12
2018-08-07T02:15:54.672Z,17.09
2018-08-07T02:18:58.993Z,17.07
2018-08-07T02:22:03.773Z,17.08
2018-08-07T02:25:10.124Z,17.06
2018-08-07T02:28:14.434Z,17.05
2018-08-07T02:31:18.727Z,17.05
2018-08-07T02:34:23.039Z,17.04
2018-08-07T02:37:27.316Z,16.99
2018-08-07T02:40:31.600Z,16.95
2018-08-07T02:43:35.866Z,16.94
2018-08-07T02:46:40.236Z,16.93
2018-08-07T02:49:44.502Z,16.92
2018-08-07T02:52:48.755Z,16.96
2018-08-07T02:55:53.013Z,16.98
2018-08-07T02:58:57.223Z,16.95
2018-08-07T03:02:01.508Z,16.89
2018-08-07T03:05:07.421Z,16.83
2018-08-07T03:08:11.715Z,16.78
2018-08-07T03:11:16.033Z,16.74
2018-08-07T03:14:20.426Z,16.71
2018-08-07T03:17:24.685Z,16.71
2018-08-07T03:20:28.939Z,16.74
2018-08-07T03:23:33.285Z,16.76
2018-08-07T03:26:37.515Z,16.76
2018-08-07T03:29:41.809Z,16.80
2018-08-07T03:32:46.489Z,16.81
2018-08-07T03:35:50.870Z,16.80
2018-08-07T03:38:55.184Z,16.78
2018-08-07T03:41:59.515Z,16.72
2018-08-07T03:45:03.839Z,16.71
2018-08-07T03:48:08.235Z,16.69
2018-08-07T03:51:12.611Z,16.71
2018-08-07T03:54:16.836Z,16.74
2018-08-07T03:57:21.123Z,16.77
2018-08-07T04:00:25.432Z,16.78
2018-08-07T04:03:29.720Z,16.73
2018-08-07T04:06:33.960Z,16.71
2018-08-07T04:09:38.407Z,16.72
2018-08-07T04:12:42.909Z,16.72
2018-08-07T04:15:47.175Z,16.72
2018-08-07T04:18:51.433Z,16.75
2018-08-07T04:21:56.412Z,16.82
2018-08-07T04:25:00.692Z,16.91
2018-08-07T04:28:05.084Z,16.97
2018-08-07T04:31:09.420Z,17.04
2018-08-07T04:34:13.800Z,17.13
2018-08-07T04:37:18.286Z,17.16
2018-08-07T04:40:22.580Z,17.17
2018-08-07T04:43:26.916Z,17.22
2018-08-07T04:46:31.242Z,17.23
2018-08-07T04:49:35.508Z,17.24
2018-08-07T04:52:40.203Z,17.29
2018-08-07T04:55:44.590Z,17.39
2018-08-07T04:58:48.921Z,17.48
2018-08-07T05:01:53.236Z,17.59
2018-08-07T05:04:57.485Z,17.71
2018-08-07T05:08:01.765Z,17.78
2018-08-07T05:11:06.083Z,17.85
2018-08-07T05:14:10.428Z,17.96
2018-08-07T05:17:14.993Z,18.11
2018-08-07T05:20:19.224Z,18.28
2018-08-07T05:23:23.566Z,18.45
2018-08-07T05:26:27.919Z,18.68
2018-08-07T05:29:32.188Z,18.93
2018-08-07T05:32:36.727Z,19.43
2018-08-07T05:35:41.189Z,19.84
2018-08-07T05:38:45.447Z,20.13
2018-08-07T05:41:49.825Z,20.36
2018-08-07T05:44:54.106Z,20.66
2018-08-07T05:47:58.432Z,20.90
2018-08-07T05:51:02.787Z,21.14
2018-08-07T05:54:06.884Z,21.36
2018-08-07T05:57:11.185Z,21.53
2018-08-07T06:00:18.569Z,21.66
2018-08-07T06:03:22.992Z,21.78
2018-08-07T06:06:27.317Z,21.83
2018-08-07T06:09:31.607Z,21.97
2018-08-07T06:12:36.020Z,22.05
2018-08-07T06:15:40.529Z,22.13
2018-08-07T06:18:44.954Z,22.24
2018-08-07T06:21:49.249Z,22.34
2018-08-07T06:24:53.560Z,22.44
2018-08-07T06:27:57.886Z,22.63
2018-08-07T06:31:02.212Z,22.70
2018-08-07T06:34:06.836Z,22.77
2018-08-07T06:37:11.165Z,22.88
2018-08-07T06:40:15.714Z,22.97
2018-08-07T06:43:19.950Z,23.05
2018-08-07T06:46:24.300Z,23.19
2018-08-07T06:49:28.604Z,23.31
2018-08-07T06:52:32.941Z,23.43
2018-08-07T06:55:37.277Z,23.52
2018-08-07T06:58:41.536Z,23.60
2018-08-07T07:01:45.916Z,23.74
2018-08-07T07:04:50.234Z,23.91
2018-08-07T07:07:54.557Z,24.00
2018-08-07T07:10:58.863Z,24.14
2018-08-07T07:14:03.193Z,24.28
2018-08-07T07:17:07.493Z,24.36
2018-08-07T07:20:13.939Z,24.47
2018-08-07T07:23:18.407Z,24.60
2018-08-07T07:26:22.681Z,24.70
2018-08-07T07:29:26.972Z,24.84
2018-08-07T07:32:31.255Z,24.88
2018-08-07T07:35:35.572Z,25.01
2018-08-07T07:38:39.884Z,25.11
2018-08-07T07:41:44.318Z,25.29
2018-08-07T07:44:48.632Z,25.39
2018-08-07T07:47:52.932Z,25.52
2018-08-07T07:50:57.277Z,25.57
2018-08-07T07:54:01.663Z,25.71
2018-08-07T07:57:05.970Z,25.82
2018-08-07T08:00:25.863Z,25.91
2018-08-07T08:03:30.122Z,25.99
2018-08-07T08:06:34.450Z,26.09
2018-08-07T08:09:38.753Z,26.27
2018-08-07T08:12:43.068Z,26.32
2018-08-07T08:15:47.495Z,26.34
2018-08-07T08:18:51.795Z,26.38
2018-08-07T08:21:56.093Z,26.50
2018-08-07T08:25:00.446Z,26.42
2018-08-07T08:28:04.741Z,26.42
2018-08-07T08:31:09.094Z,26.42
2018-08-07T08:34:13.417Z,26.40
2018-08-07T08:37:17.692Z,26.42
2018-08-07T08:40:23.957Z,26.51
2018-08-07T08:43:28.280Z,26.53
2018-08-07T08:46:32.613Z,26.51
2018-08-07T08:49:36.912Z,26.51
2018-08-07T08:52:41.658Z,26.52
2018-08-07T08:55:45.984Z,26.58
2018-08-07T08:58:50.554Z,26.69
2018-08-07T09:01:54.951Z,26.83
2018-08-07T09:04:59.207Z,26.95
2018-08-07T09:08:03.578Z,27.04
2018-08-07T09:11:07.890Z,27.18
2018-08-07T09:14:12.200Z,27.10
2018-08-07T09:17:16.376Z,27.13
2018-08-07T09:20:24.961Z,27.24
2018-08-07T09:23:29.373Z,27.30
2018-08-07T09:26:33.698Z,27.41
2018-08-07T09:29:38.005Z,27.44
2018-08-07T09:32:42.343Z,27.51
2018-08-07T09:35:46.597Z,27.65
2018-08-07T09:38:50.992Z,27.68
2018-08-07T09:41:55.331Z,27.68
2018-08-07T09:44:59.614Z,27.69
2018-08-07T09:48:09.054Z,27.66
2018-08-07T09:51:13.385Z,27.73
2018-08-07T09:54:17.659Z,27.87
2018-08-07T09:57:22.030Z,27.91
2018-08-07T10:00:31.668Z,27.91
2018-08-07T10:03:35.937Z,27.88
2018-08-07T10:06:40.302Z,28.00
2018-08-07T10:09:44.588Z,27.93
2018-08-07T10:12:48.867Z,28.07
2018-08-07T10:15:53.259Z,28.13
2018-08-07T10:18:57.463Z,28.06
2018-08-07T10:22:01.898Z,28.22
2018-08-07T10:25:08.121Z,28.27
2018-08-07T10:28:12.444Z,28.36
2018-08-07T10:31:16.775Z,28.32
2018-08-07T10:34:20.851Z,28.27
2018-08-07T10:37:25.131Z,28.31
2018-08-07T10:40:29.462Z,28.45
2018-08-07T10:43:33.857Z,28.57
2018-08-07T10:46:38.235Z,28.70
2018-08-07T10:49:42.623Z,28.71
2018-08-07T10:52:47.073Z,28.70
2018-08-07T10:55:51.446Z,28.78
2018-08-07T10:58:55.763Z,28.82
2018-08-07T11:02:00.084Z,28.81
2018-08-07T11:05:05.133Z,28.86
2018-08-07T11:08:09.419Z,28.78
2018-08-07T11:11:13.735Z,28.67
2018-08-07T11:14:18.134Z,28.70
2018-08-07T11:17:22.513Z,28.72
2018-08-07T11:20:26.984Z,28.67
2018-08-07T11:23:31.337Z,28.65
2018-08-07T11:26:35.651Z,28.68
2018-08-07T11:29:39.979Z,28.67
2018-08-07T11:32:44.661Z,28.56
2018-08-07T11:35:48.963Z,28.54
2018-08-07T11:38:53.368Z,28.59
2018-08-07T11:41:57.647Z,28.60
2018-08-07T11:45:02.003Z,28.37
2018-08-07T11:48:06.395Z,28.36
2018-08-07T11:51:10.698Z,28.36
2018-08-07T11:54:15.054Z,28.45
2018-08-07T11:57:19.356Z,28.58
2018-08-07T12:00:29.604Z,28.54
2018-08-07T12:03:33.879Z,28.44
2018-08-07T12:06:38.381Z,28.59
2018-08-07T12:09:42.730Z,28.62
2018-08-07T12:12:47.354Z,28.61
2018-08-07T12:15:51.755Z,28.66
2018-08-07T12:18:56.091Z,28.73
2018-08-07T12:22:00.490Z,28.74
2018-08-07T12:25:05.590Z,28.81
2018-08-07T12:28:09.935Z,28.64
2018-08-07T12:31:14.271Z,28.66
2018-08-07T12:34:18.931Z,28.87
2018-08-07T12:37:23.339Z,29.00
2018-08-07T12:40:29.583Z,29.04
2018-08-07T12:43:34.011Z,29.21
2018-08-07T12:46:38.379Z,29.31
2018-08-07T12:49:42.744Z,29.40
2018-08-07T12:52:47.009Z,29.60
2018-08-07T12:56:22.106Z,29.78
2018-08-07T12:59:26.561Z,29.81
2018-08-07T13:02:31.000Z,29.94
2018-08-07T13:05:35.305Z,29.94
2018-08-07T13:08:39.655Z,30.03
2018-08-07T13:11:43.993Z,30.13
2018-08-07T13:14:48.345Z,29.91
2018-08-07T13:17:52.722Z,29.87
2018-08-07T13:20:57.092Z,29.79
2018-08-07T13:24:01.841Z,29.76
2018-08-07T13:27:06.247Z,29.74
2018-08-07T13:30:17.024Z,29.71
2018-08-07T13:33:21.399Z,29.77
2018-08-07T13:36:25.724Z,29.85
2018-08-07T13:39:30.000Z,30.02
2018-08-07T13:42:34.267Z,29.94
2018-08-07T13:45:38.771Z,29.86
2018-08-07T13:48:43.118Z,29.71
2018-08-07T13:51:47.532Z,29.89
2018-08-07T13:54:51.819Z,30.20
2018-08-07T13:57:56.247Z,30.51
2018-08-07T14:01:00.536Z,30.73
2018-08-07T14:04:04.817Z,31.02
2018-08-07T14:07:09.224Z,30.95
2018-08-07T14:10:14.473Z,30.92
2018-08-07T14:13:19.103Z,30.98
2018-08-07T14:16:23.547Z,30.79
2018-08-07T14:19:27.883Z,30.62
2018-08-07T14:22:32.301Z,30.58
2018-08-07T14:25:36.709Z,30.48
2018-08-07T14:28:41.124Z,30.60
2018-08-07T14:31:45.455Z,30.52
2018-08-07T14:34:49.865Z,30.53
2018-08-07T14:37:54.283Z,30.57
2018-08-07T14:40:58.598Z,30.65
2018-08-07T14:44:03.007Z,30.85
2018-08-07T14:47:07.332Z,31.11
2018-08-07T14:50:15.532Z,31.39
2018-08-07T14:53:19.865Z,31.55
2018-08-07T14:56:24.204Z,31.72
2018-08-07T14:59:28.603Z,31.86
2018-08-07T15:02:32.905Z,32.06
2018-08-07T15:05:37.214Z,32.11
2018-08-07T15:08:41.490Z,32.24
2018-08-07T15:11:45.895Z,32.36
2018-08-07T15:14:50.338Z,32.54
2018-08-07T15:17:54.761Z,32.51
2018-08-07T15:20:59.115Z,32.27
2018-08-07T15:24:03.510Z,32.23
2018-08-07T15:27:07.857Z,32.24
2018-08-07T15:30:16.472Z,32.32
2018-08-07T15:33:20.812Z,32.36
2018-08-07T15:36:25.260Z,32.26
2018-08-07T15:39:29.570Z,32.21
2018-08-07T15:42:33.919Z,32.00
2018-08-07T15:45:38.300Z,31.78
2018-08-07T15:48:42.739Z,31.82
2018-08-07T15:51:47.041Z,31.87
2018-08-07T15:54:51.398Z,31.90
2018-08-07T15:57:55.808Z,32.03
2018-08-07T16:01:00.248Z,32.07
2018-08-07T16:04:04.605Z,32.21
2018-08-07T16:07:08.999Z,32.11
2018-08-07T16:10:16.011Z,32.19
2018-08-07T16:13:20.363Z,32.30
2018-08-07T16:16:24.668Z,32.46
2018-08-07T16:19:29.005Z,32.39
2018-08-07T16:22:33.510Z,32.27
2018-08-07T16:25:37.680Z,32.35
2018-08-07T16:28:42.063Z,32.32
2018-08-07T16:31:46.369Z,32.35
2018-08-07T16:34:50.822Z,32.44
2018-08-07T16:37:55.173Z,32.53
2018-08-07T16:40:59.554Z,32.68
2018-08-07T16:44:03.854Z,32.67
2018-08-07T16:47:08.302Z,32.84
2018-08-07T16:50:16.603Z,32.77
2018-08-07T16:53:20.987Z,32.81
2018-08-07T16:56:25.342Z,32.72
2018-08-07T16:59:29.782Z,32.63
2018-08-07T17:02:34.120Z,32.48
2018-08-07T17:05:38.368Z,32.51
2018-08-07T17:08:42.822Z,32.52
2018-08-07T17:11:47.151Z,32.64
2018-08-07T17:14:51.606Z,32.60
2018-08-07T17:17:56.007Z,32.58
2018-08-07T17:21:00.396Z,32.50
2018-08-07T17:24:04.833Z,32.35
2018-08-07T17:27:09.247Z,32.13
2018-08-07T17:30:19.373Z,31.86
2018-08-07T17:33:23.949Z,31.41
2018-08-07T17:36:28.438Z,31.01
2018-08-07T17:39:32.823Z,30.66
2018-08-07T17:42:38.224Z,30.33
2018-08-07T17:45:42.910Z,29.91
2018-08-07T17:48:47.302Z,29.58
2018-08-07T17:51:52.139Z,29.39
2018-08-07T17:54:56.459Z,29.19
2018-08-07T17:58:01.631Z,29.01
2018-08-07T18:01:06.294Z,28.77
2018-08-07T18:04:10.895Z,28.66
2018-08-07T18:07:15.492Z,28.34
2018-08-07T18:10:22.362Z,28.24
2018-08-07T18:13:27.617Z,28.03
2018-08-07T18:16:32.997Z,27.79
2018-08-07T18:19:38.029Z,27.64
2018-08-07T18:22:43.435Z,27.46
2018-08-07T18:25:48.666Z,27.30
2018-08-07T18:28:53.774Z,27.13
2018-08-07T18:31:59.543Z,26.90
2018-08-07T18:35:05.797Z,26.71
2018-08-07T18:38:11.280Z,26.61
2018-08-07T18:41:15.778Z,26.53
2018-08-07T18:44:20.188Z,26.47
2018-08-07T18:47:24.633Z,26.33
2018-08-07T18:50:29.040Z,26.26
2018-08-07T18:53:33.408Z,26.13
2018-08-07T18:56:37.792Z,26.03
2018-08-07T18:59:42.146Z,25.83
2018-08-07T19:02:46.544Z,25.73
2018-08-07T19:05:50.909Z,25.65
2018-08-07T19:08:55.377Z,25.55
2018-08-07T19:11:59.801Z,25.46
2018-08-07T19:15:04.197Z,25.36
2018-08-07T19:18:08.563Z,25.29
2018-08-07T19:21:12.965Z,25.25
2018-08-07T19:24:17.280Z,25.19
2018-08-07T19:27:21.679Z,25.12
2018-08-07T19:30:26.684Z,25.05
2018-08-07T19:33:31.012Z,25.00
2018-08-07T19:36:35.381Z,24.97
2018-08-07T19:39:39.885Z,24.85
2018-08-07T19:42:44.945Z,24.76
2018-08-07T19:45:49.304Z,24.71
2018-08-07T19:48:53.697Z,24.66
2018-08-07T19:51:58.084Z,24.60
2018-08-07T19:55:02.436Z,24.51
2018-08-07T19:58:06.839Z,24.54
2018-08-07T20:01:11.274Z,24.48
2018-08-07T20:04:15.674Z,24.48
2018-08-07T20:07:20.104Z,24.45
2018-08-07T20:10:24.521Z,24.43
2018-08-07T20:13:28.860Z,24.40
2018-08-07T20:16:33.249Z,24.37
2018-08-07T20:19:37.568Z,24.34
2018-08-07T20:22:41.966Z,24.32
2018-08-07T20:25:46.338Z,24.25
2018-08-07T20:28:50.589Z,24.23
2018-08-07T20:31:54.950Z,24.17
2018-08-07T20:34:59.372Z,24.11
2018-08-07T20:38:03.679Z,24.11
2018-08-07T20:41:08.184Z,24.05
2018-08-07T20:44:12.542Z,23.91
2018-08-07T20:47:16.855Z,23.90
2018-08-07T20:50:24.044Z,23.90
2018-08-07T20:53:28.388Z,23.86
2018-08-07T20:56:32.772Z,23.82
2018-08-07T20:59:37.176Z,23.80
2018-08-07T21:02:41.529Z,23.85
2018-08-07T21:05:45.808Z,23.87
2018-08-07T21:08:50.153Z,23.92
2018-08-07T21:11:54.484Z,23.91
2018-08-07T21:14:58.797Z,23.85
2018-08-07T21:18:03.229Z,23.89
2018-08-07T21:21:07.499Z,23.88
2018-08-07T21:24:11.849Z,23.87
2018-08-07T21:27:16.221Z,23.89
2018-08-07T21:30:23.404Z,23.87
2018-08-07T21:33:27.763Z,23.80
2018-08-07T21:36:33.241Z,23.76
2018-08-07T21:39:37.573Z,23.77
2018-08-07T21:42:42.424Z,23.71
2018-08-07T21:45:46.887Z,23.71
2018-08-07T21:48:51.281Z,23.71
2018-08-07T21:51:55.686Z,23.66
2018-08-07T21:54:59.973Z,23.68
2018-08-07T21:58:04.401Z,23.71
2018-08-07T22:01:09.210Z,23.72
2018-08-07T22:04:13.734Z,23.69
2018-08-07T22:07:18.569Z,23.64
2018-08-07T22:10:22.910Z,23.60
2018-08-07T22:13:27.349Z,23.52
2018-08-07T22:16:31.632Z,23.52
2018-08-07T22:19:36.061Z,23.50
2018-08-07T22:22:41.521Z,23.48
2018-08-07T22:25:47.035Z,23.43
2018-08-07T22:28:52.691Z,23.40
2018-08-07T22:31:57.274Z,23.32
2018-08-07T22:35:01.636Z,23.29
2018-08-07T22:38:05.992Z,23.30
2018-08-07T22:41:10.432Z,23.21
2018-08-07T22:44:14.949Z,23.20
2018-08-07T22:47:19.222Z,23.18
2018-08-07T22:50:23.580Z,23.16
2018-08-07T22:53:27.956Z,23.21
2018-08-07T22:56:32.299Z,23.21
2018-08-07T22:59:36.878Z,23.17
2018-08-07T23:02:41.289Z,23.10
2018-08-07T23:05:45.647Z,23.08
2018-08-07T23:08:50.017Z,23.14
2018-08-07T23:11:54.301Z,23.16
2018-08-07T23:14:58.568Z,23.15
2018-08-07T23:18:02.976Z,23.11
2018-08-07T23:21:07.512Z,23.16
2018-08-07T23:24:11.847Z,23.15
2018-08-07T23:27:16.303Z,23.16
2018-08-07T23:30:21.172Z,23.15
2018-08-07T23:33:25.536Z,23.15
2018-08-07T23:36:29.785Z,23.14
2018-08-07T23:39:34.091Z,23.16
2018-08-07T23:42:38.859Z,23.16
2018-08-07T23:45:43.136Z,23.14
2018-08-07T23:48:47.431Z,23.13
2018-08-07T23:51:51.738Z,23.18
2018-08-07T23:54:56.105Z,23.17
2018-08-07T23:58:00.400Z,23.22
